createdAt,value
2022-08-07T00:01:44.133Z,2.20
2022-08-07T00:04:09.535Z,2.40
2022-08-07T00:06:45.597Z,2.70
2022-08-07T00:09:22.821Z,2.80
2022-08-07T00:11:55.325Z,2.30
2022-08-07T00:14:30.164Z,3.00
2022-08-07T00:17:02.423Z,2.50
2022-08-07T00:19:59.943Z,2.60
2022-08-07T00:22:24.371Z,3.50
2022-08-07T00:25:11.236Z,2.80
2022-08-07T00:27:53.346Z,3.20
2022-08-07T00:30:27.234Z,4.50
2022-08-07T00:32:58.725Z,3.30
2022-08-07T00:35:30.325Z,2.50
2022-08-07T00:38:00.202Z,3.10
2022-08-07T00:40:36.311Z,2.80
2022-08-07T00:44:01.817Z,3.30
2022-08-07T00:46:03.097Z,3.50
2022-08-07T00:48:32.401Z,3.10
2022-08-07T00:51:02.994Z,3.30
2022-08-07T00:53:38.366Z,2.40
2022-08-07T00:56:15.616Z,2.90
2022-08-07T00:58:47.019Z,3.00
2022-08-07T01:01:20.549Z,2.10
2022-08-07T01:03:56.584Z,2.60
2022-08-07T01:06:29.631Z,2.60
2022-08-07T01:09:01.069Z,2.80
2022-08-07T01:12:10.026Z,2.40
2022-08-07T01:14:28.766Z,2.20
2022-08-07T01:16:57.951Z,2.30
2022-08-07T01:19:32.218Z,2.40
2022-08-07T01:22:03.064Z,2.30
2022-08-07T01:24:32.654Z,1.60
2022-08-07T01:27:01.615Z,2.20
2022-08-07T01:29:33.783Z,1.70
2022-08-07T01:32:05.511Z,2.40
2022-08-07T01:34:35.278Z,2.20
2022-08-07T01:37:04.240Z,2.50
2022-08-07T01:39:41.184Z,2.80
2022-08-07T01:42:40.102Z,1.60
2022-08-07T01:45:09.701Z,1.90
2022-08-07T01:48:19.205Z,2.00
2022-08-07T01:50:40.351Z,1.90
2022-08-07T01:53:21.773Z,1.60
2022-08-07T01:56:11.172Z,2.10
2022-08-07T01:58:52.673Z,1.90
2022-08-07T02:02:00.013Z,2.00
2022-08-07T02:04:38.899Z,2.30
2022-08-07T02:07:45.162Z,2.00
2022-08-07T02:10:17.844Z,2.00
2022-08-07T02:12:50.219Z,2.10
2022-08-07T02:15:27.887Z,1.80
2022-08-07T02:17:59.836Z,2.10
2022-08-07T02:20:31.576Z,2.30
2022-08-07T02:23:05.172Z,1.80
2022-08-07T02:26:30.779Z,1.60
2022-08-07T02:28:30.744Z,2.50
2022-08-07T02:31:10.181Z,1.90
2022-08-07T02:34:01.795Z,2.60
2022-08-07T02:36:34.047Z,1.60
2022-08-07T02:39:16.309Z,2.20
2022-08-07T02:41:56.773Z,2.50
2022-08-07T02:44:34.679Z,1.90
2022-08-07T02:47:06.955Z,2.20
2022-08-07T02:49:58.254Z,2.20
2022-08-07T02:52:34.083Z,2.80
2022-08-07T02:55:28.483Z,2.30
2022-08-07T02:58:10.836Z,1.90
2022-08-07T03:00:45.594Z,1.80
2022-08-07T03:03:21.105Z,2.10
2022-08-07T03:05:53.772Z,2.40
2022-08-07T03:08:26.855Z,1.60
2022-08-07T03:10:59.735Z,1.90
2022-08-07T03:13:29.416Z,2.30
2022-08-07T03:16:08.195Z,2.50
2022-08-07T03:18:36.977Z,2.00
2022-08-07T03:21:08.757Z,2.10
2022-08-07T03:24:20.558Z,2.10
2022-08-07T03:26:33.846Z,1.70
2022-08-07T03:29:11.097Z,1.80
2022-08-07T03:31:46.435Z,2.10
2022-08-07T03:36:53.676Z,1.80
2022-08-07T03:39:45.717Z,1.70
2022-08-07T03:42:13.401Z,2.00
2022-08-07T03:44:43.067Z,2.60
2022-08-07T03:47:22.861Z,1.90
2022-08-07T03:49:52.339Z,2.40
2022-08-07T03:52:28.053Z,2.00
2022-08-07T03:55:06.789Z,1.80
2022-08-07T03:58:33.135Z,1.80
2022-08-07T04:00:30.271Z,1.90
2022-08-07T04:02:59.794Z,1.50
2022-08-07T04:05:40.526Z,2.00
2022-08-07T04:08:16.098Z,1.60
2022-08-07T04:10:54.375Z,2.30
2022-08-07T04:14:09.246Z,2.30
2022-08-07T04:16:31.410Z,2.50
2022-08-07T04:19:04.121Z,2.30
2022-08-07T04:21:58.961Z,1.90
2022-08-07T04:24:34.273Z,1.90
2022-08-07T04:27:15.266Z,2.60
2022-08-07T04:30:01.446Z,2.10
2022-08-07T04:32:34.377Z,2.40
2022-08-07T04:35:07.238Z,2.00
2022-08-07T04:38:00.795Z,2.60
2022-08-07T04:40:30.068Z,2.10
2022-08-07T04:43:02.149Z,1.90
2022-08-07T04:46:01.372Z,2.20
2022-08-07T04:49:14.914Z,2.10
2022-08-07T04:51:58.827Z,2.50
2022-08-07T04:54:50.580Z,2.30
2022-08-07T04:58:14.298Z,2.00
2022-08-07T05:01:05.089Z,2.30
2022-08-07T05:04:08.623Z,1.50
2022-08-07T05:07:19.552Z,2.30
2022-08-07T05:10:04.637Z,2.40
2022-08-07T05:12:59.873Z,2.50
2022-08-07T05:15:40.564Z,2.30
2022-08-07T05:18:29.554Z,4.10
2022-08-07T05:21:04.004Z,3.80
2022-08-07T05:23:50.253Z,3.70
2022-08-07T05:28:56.618Z,2.70
2022-08-07T05:31:35.001Z,1.90
2022-08-07T05:34:16.416Z,2.30
2022-08-07T05:36:53.012Z,3.90
2022-08-07T05:40:16.687Z,2.30
2022-08-07T05:42:14.538Z,3.30
2022-08-07T05:44:52.737Z,3.10
2022-08-07T05:47:38.434Z,2.70
2022-08-07T05:50:23.878Z,2.80
2022-08-07T05:52:52.391Z,1.90
2022-08-07T05:55:20.948Z,2.20
2022-08-07T05:57:53.092Z,1.90
2022-08-07T06:00:25.047Z,2.10
2022-08-07T06:02:56.612Z,3.10
2022-08-07T06:05:31.337Z,2.30
2022-08-07T06:10:44.984Z,2.00
2022-08-07T06:14:30.626Z,3.10
2022-08-07T06:17:01.235Z,2.10
2022-08-07T06:19:52.212Z,1.90
2022-08-07T06:22:27.599Z,1.90
2022-08-07T06:25:01.564Z,1.90
2022-08-07T06:28:00.137Z,2.00
2022-08-07T06:30:32.226Z,2.10
2022-08-07T06:33:09.986Z,2.40
2022-08-07T06:35:47.735Z,1.60
2022-08-07T06:38:35.032Z,2.10
2022-08-07T06:41:13.403Z,3.50
2022-08-07T06:43:46.499Z,2.50
2022-08-07T06:46:31.389Z,2.50
2022-08-07T06:49:05.536Z,1.60
2022-08-07T06:51:49.313Z,2.10
2022-08-07T06:55:33.159Z,2.00
2022-08-07T06:57:10.366Z,1.60
2022-08-07T07:00:12.288Z,1.40
2022-08-07T07:02:48.333Z,2.20
2022-08-07T07:06:03.042Z,1.80
2022-08-07T07:08:18.555Z,1.60
2022-08-07T07:10:57.473Z,1.90
2022-08-07T07:13:56.580Z,2.80
2022-08-07T07:16:31.217Z,1.70
2022-08-07T07:22:11.753Z,1.60
2022-08-07T07:24:56.875Z,1.30
2022-08-07T07:27:35.811Z,3.10
2022-08-07T07:30:39.413Z,1.60
2022-08-07T07:33:14.303Z,1.70
2022-08-07T07:36:04.156Z,1.40
2022-08-07T07:38:37.295Z,2.30
2022-08-07T07:41:11.353Z,1.90
2022-08-07T07:44:14.157Z,1.60
2022-08-07T07:46:53.691Z,1.30
2022-08-07T07:50:34.368Z,1.30
2022-08-07T07:52:21.023Z,1.70
2022-08-07T07:54:54.057Z,1.60
2022-08-07T07:57:44.036Z,1.70
2022-08-07T08:00:29.246Z,1.40
2022-08-07T08:03:08.016Z,0.90
2022-08-07T08:05:53.846Z,1.10
2022-08-07T08:08:36.857Z,0.90
2022-08-07T08:11:16.029Z,1.40
2022-08-07T08:13:53.100Z,0.90
2022-08-07T08:16:35.237Z,1.10
2022-08-07T08:19:09.838Z,1.20
2022-08-07T08:22:08.262Z,0.70
2022-08-07T08:25:18.452Z,1.20
2022-08-07T08:27:57.476Z,1.00
2022-08-07T08:30:34.840Z,0.70
2022-08-07T08:33:10.276Z,0.70
2022-08-07T08:35:50.586Z,0.60
2022-08-07T08:38:25.934Z,0.90
2022-08-07T08:41:58.325Z,0.90
2022-08-07T08:44:41.288Z,1.00
2022-08-07T08:47:29.623Z,1.20
2022-08-07T08:50:40.173Z,0.90
2022-08-07T08:53:42.541Z,1.10
2022-08-07T08:56:33.915Z,1.10
2022-08-07T08:59:13.755Z,1.50
2022-08-07T09:02:10.952Z,0.50
2022-08-07T09:05:26.567Z,1.00
2022-08-07T09:08:28.669Z,0.80
2022-08-07T09:11:51.179Z,0.90
2022-08-07T09:16:22.816Z,0.70
2022-08-07T09:18:58.370Z,0.70
2022-08-07T09:22:22.728Z,0.60
2022-08-07T09:25:18.013Z,0.70
2022-08-07T09:30:03.990Z,0.80
2022-08-07T09:31:39.039Z,0.70
2022-08-07T09:34:32.770Z,0.60
2022-08-07T09:37:20.738Z,0.70
2022-08-07T09:40:35.904Z,0.60
2022-08-07T09:43:40.152Z,0.80
2022-08-07T09:47:50.853Z,0.70
2022-08-07T09:50:18.596Z,0.90
2022-08-07T09:53:00.852Z,1.00
2022-08-07T09:56:04.612Z,0.90
2022-08-07T09:58:59.448Z,0.90
2022-08-07T10:01:50.645Z,0.90
2022-08-07T10:05:12.675Z,0.60
2022-08-07T10:08:45.971Z,0.60
2022-08-07T10:12:01.485Z,1.10
2022-08-07T10:14:32.215Z,0.80
2022-08-07T10:18:01.850Z,0.80
2022-08-07T10:20:38.964Z,0.70
2022-08-07T10:24:05.921Z,0.70
2022-08-07T10:27:18.171Z,0.60
2022-08-07T10:30:13.746Z,0.80
2022-08-07T10:33:13.137Z,0.80
2022-08-07T10:36:12.543Z,0.80
2022-08-07T10:39:10.918Z,1.10
2022-08-07T10:42:00.352Z,0.90
2022-08-07T10:44:52.642Z,0.90
2022-08-07T10:48:04.846Z,0.80
2022-08-07T10:50:52.385Z,1.00
2022-08-07T10:54:07.065Z,1.20
2022-08-07T10:57:22.068Z,1.20
2022-08-07T11:00:08.944Z,1.00
2022-08-07T11:02:37.958Z,0.70
2022-08-07T11:05:58.861Z,0.90
2022-08-07T11:09:00.509Z,1.10
2022-08-07T11:12:14.714Z,0.70
2022-08-07T11:15:17.389Z,1.40
2022-08-07T11:18:35.396Z,0.90
2022-08-07T11:21:42.915Z,1.10
2022-08-07T11:24:48.368Z,1.00
2022-08-07T11:28:15.391Z,0.90
2022-08-07T11:31:08.760Z,1.00
2022-08-07T11:33:58.697Z,0.80
2022-08-07T11:37:57.880Z,1.00
2022-08-07T11:41:02.172Z,0.80
2022-08-07T11:44:11.402Z,1.00
2022-08-07T11:46:59.069Z,1.10
2022-08-07T11:50:30.068Z,0.70
2022-08-07T11:53:43.426Z,1.00
2022-08-07T11:56:54.095Z,0.70
2022-08-07T12:00:12.325Z,1.20
2022-08-07T12:03:44.365Z,1.00
2022-08-07T12:06:40.020Z,1.30
2022-08-07T12:09:34.208Z,1.00
2022-08-07T12:12:16.419Z,0.90
2022-08-07T12:15:04.541Z,0.80
2022-08-07T12:17:59.727Z,1.00
2022-08-07T12:20:52.502Z,0.80
2022-08-07T12:24:07.007Z,1.00
2022-08-07T12:26:53.781Z,1.10
2022-08-07T12:29:42.673Z,1.00
2022-08-07T12:32:22.999Z,0.80
2022-08-07T12:34:56.238Z,1.00
2022-08-07T12:38:10.201Z,1.20
2022-08-07T12:40:47.396Z,0.80
2022-08-07T12:44:03.991Z,0.80
2022-08-07T12:46:48.942Z,0.70
2022-08-07T12:50:05.187Z,0.80
2022-08-07T12:53:22.412Z,0.90
2022-08-07T12:56:12.551Z,0.90
2022-08-07T12:58:53.030Z,0.90
2022-08-07T13:01:42.948Z,1.00
2022-08-07T13:06:01.924Z,0.80
2022-08-07T13:08:28.983Z,1.00
2022-08-07T13:12:02.721Z,1.10
2022-08-07T13:14:38.237Z,0.70
2022-08-07T13:17:51.313Z,1.00
2022-08-07T13:20:34.405Z,0.90
2022-08-07T13:24:01.872Z,0.80
2022-08-07T13:26:26.586Z,0.80
2022-08-07T13:29:34.784Z,0.70
2022-08-07T13:32:31.685Z,1.00
2022-08-07T13:36:00.910Z,0.90
2022-08-07T13:38:45.586Z,0.90
2022-08-07T13:41:54.959Z,1.10
2022-08-07T13:44:34.618Z,0.90
2022-08-07T13:47:09.543Z,1.30
2022-08-07T13:50:44.023Z,1.10
2022-08-07T13:52:40.022Z,0.90
2022-08-07T13:55:19.808Z,2.90
2022-08-07T13:58:32.369Z,1.90
2022-08-07T14:01:20.453Z,2.40
2022-08-07T14:04:07.731Z,1.00
2022-08-07T14:06:41.510Z,1.00
2022-08-07T14:10:03.043Z,1.00
2022-08-07T14:12:32.330Z,1.10
2022-08-07T14:15:10.010Z,0.90
2022-08-07T14:18:13.604Z,2.10
2022-08-07T14:23:58.781Z,1.20
2022-08-07T14:30:05.462Z,1.50
2022-08-07T14:32:12.690Z,2.70
2022-08-07T14:34:48.896Z,1.70
2022-08-07T14:37:23.800Z,1.30
2022-08-07T14:40:26.231Z,1.30
2022-08-07T14:43:57.911Z,1.30
2022-08-07T14:45:55.421Z,1.10
2022-08-07T14:48:32.643Z,1.70
2022-08-07T14:54:30.453Z,1.30
2022-08-07T14:56:52.798Z,1.00
2022-08-07T15:00:05.405Z,1.20
2022-08-07T15:02:34.301Z,1.00
2022-08-07T15:05:20.127Z,0.90
2022-08-07T15:07:51.952Z,1.00
2022-08-07T15:13:25.470Z,1.10
2022-08-07T15:19:01.792Z,1.20
2022-08-07T15:21:58.866Z,1.00
2022-08-07T15:25:16.238Z,1.10
2022-08-07T15:27:34.521Z,1.20
2022-08-07T15:33:05.474Z,1.10
2022-08-07T15:36:02.101Z,1.20
2022-08-07T15:38:50.979Z,1.70
2022-08-07T15:42:43.440Z,2.20
2022-08-07T15:44:21.454Z,1.60
2022-08-07T15:47:09.067Z,1.60
2022-08-07T15:50:04.511Z,2.20
2022-08-07T15:52:38.311Z,1.70
2022-08-07T15:55:12.271Z,1.90
2022-08-07T15:57:51.601Z,2.00
2022-08-07T16:00:33.358Z,2.00
2022-08-07T16:03:21.381Z,3.90
2022-08-07T16:05:52.766Z,2.10
2022-08-07T16:08:32.210Z,2.20
2022-08-07T16:11:28.715Z,2.40
2022-08-07T16:14:29.972Z,2.30
2022-08-07T16:18:02.134Z,2.30
2022-08-07T16:22:01.419Z,2.20
2022-08-07T16:24:02.996Z,2.50
2022-08-07T16:26:59.558Z,2.40
2022-08-07T16:30:10.693Z,2.40
2022-08-07T16:32:54.470Z,2.40
2022-08-07T16:35:56.576Z,2.20
2022-08-07T16:39:01.515Z,1.90
2022-08-07T16:41:59.757Z,1.60
2022-08-07T16:45:15.135Z,1.30
2022-08-07T16:48:30.033Z,1.40
2022-08-07T16:52:01.667Z,1.30
2022-08-07T16:54:54.114Z,2.90
2022-08-07T16:58:01.700Z,1.90
2022-08-07T17:00:58.026Z,1.50
2022-08-07T17:04:24.493Z,1.50
2022-08-07T17:07:28.433Z,1.30
2022-08-07T17:10:30.169Z,1.50
2022-08-07T17:13:16.158Z,1.50
2022-08-07T17:16:03.169Z,1.40
2022-08-07T17:18:57.672Z,1.70
2022-08-07T17:21:55.605Z,1.60
2022-08-07T17:25:51.319Z,1.30
2022-08-07T17:31:17.713Z,2.00
2022-08-07T17:34:15.113Z,1.80
2022-08-07T17:36:59.837Z,2.60
2022-08-07T17:40:08.184Z,4.80
2022-08-07T17:42:58.690Z,1.60
2022-08-07T17:45:41.065Z,1.60
2022-08-07T17:48:31.078Z,1.20
2022-08-07T17:51:13.598Z,1.30
2022-08-07T17:54:29.747Z,1.80
2022-08-07T17:57:21.242Z,1.10
2022-08-07T17:59:59.881Z,1.00
2022-08-07T18:02:41.529Z,1.00
2022-08-07T18:06:03.302Z,1.10
2022-08-07T18:09:00.296Z,1.10
2022-08-07T18:12:17.773Z,0.90
2022-08-07T18:14:51.536Z,1.70
2022-08-07T18:18:44.948Z,1.10
2022-08-07T18:21:12.803Z,1.10
2022-08-07T18:23:59.635Z,0.80
2022-08-07T18:27:09.029Z,0.90
2022-08-07T18:30:04.213Z,1.00
2022-08-07T18:33:11.029Z,0.90
2022-08-07T18:36:08.278Z,1.00
2022-08-07T18:38:55.111Z,1.50
2022-08-07T18:42:28.887Z,0.90
2022-08-07T18:45:45.110Z,0.90
2022-08-07T18:49:03.639Z,1.00
2022-08-07T18:52:35.401Z,1.50
2022-08-07T18:54:37.648Z,1.20
2022-08-07T18:57:58.776Z,1.10
2022-08-07T19:00:53.699Z,1.30
2022-08-07T19:06:20.723Z,1.80
2022-08-07T19:08:55.845Z,1.60
2022-08-07T19:12:09.528Z,1.30
2022-08-07T19:16:02.656Z,1.50
2022-08-07T19:18:37.354Z,1.40
2022-08-07T19:21:42.839Z,1.20
2022-08-07T19:24:30.476Z,1.20
2022-08-07T19:29:03.403Z,1.40
2022-08-07T19:31:06.042Z,1.30
2022-08-07T19:33:08.224Z,1.10
2022-08-07T19:35:46.746Z,1.50
2022-08-07T19:38:20.494Z,1.60
2022-08-07T19:40:55.505Z,1.50
2022-08-07T19:46:26.818Z,1.60
2022-08-07T19:49:08.453Z,1.40
2022-08-07T19:51:51.091Z,1.40
2022-08-07T19:54:29.776Z,1.70
2022-08-07T19:58:00.974Z,1.30
2022-08-07T20:00:08.964Z,1.80
2022-08-07T20:02:51.889Z,1.30
2022-08-07T20:06:00.570Z,2.80
2022-08-07T20:08:28.913Z,4.80
2022-08-07T20:11:09.982Z,3.30
2022-08-07T20:13:49.779Z,2.50
2022-08-07T20:16:35.654Z,2.40
2022-08-07T20:19:10.258Z,2.10
2022-08-07T20:21:47.479Z,1.70
2022-08-07T20:24:23.122Z,2.20
2022-08-07T20:26:55.780Z,1.90
2022-08-07T20:29:49.521Z,2.30
2022-08-07T20:32:39.973Z,2.10
2022-08-07T20:35:22.025Z,2.10
2022-08-07T20:37:59.455Z,2.00
2022-08-07T20:40:43.996Z,1.90
2022-08-07T20:43:26.700Z,1.50
2022-08-07T20:46:25.746Z,1.80
2022-08-07T20:49:54.305Z,2.00
2022-08-07T20:51:40.750Z,1.40
2022-08-07T20:54:29.972Z,2.30
2022-08-07T20:57:08.234Z,2.20
2022-08-07T21:00:07.426Z,2.30
2022-08-07T21:02:53.950Z,2.30
2022-08-07T21:05:56.062Z,1.90
2022-08-07T21:08:36.968Z,2.40
2022-08-07T21:11:16.991Z,2.40
2022-08-07T21:14:32.167Z,2.30
2022-08-07T21:18:00.751Z,2.70
2022-08-07T21:19:51.810Z,2.30
2022-08-07T21:23:08.475Z,2.00
2022-08-07T21:25:45.406Z,5.40
2022-08-07T21:28:49.299Z,3.20
2022-08-07T21:32:42.508Z,2.00
2022-08-07T21:34:46.271Z,3.40
2022-08-07T21:37:57.173Z,3.30
2022-08-07T21:40:46.349Z,2.10
2022-08-07T21:43:25.631Z,3.90
2022-08-07T21:46:31.872Z,2.30
2022-08-07T21:50:03.256Z,6.00
2022-08-07T21:52:38.972Z,5.00
2022-08-07T21:55:28.127Z,3.40
2022-08-07T21:58:30.124Z,3.10
2022-08-07T22:02:07.486Z,2.30
2022-08-07T22:04:26.289Z,2.50
2022-08-07T22:07:58.633Z,2.30
2022-08-07T22:10:33.884Z,2.40
2022-08-07T22:13:13.788Z,2.30
2022-08-07T22:16:43.410Z,1.90
2022-08-07T22:19:31.990Z,2.80
2022-08-07T22:22:28.509Z,2.30
2022-08-07T22:25:20.642Z,2.00
2022-08-07T22:28:31.159Z,2.00
2022-08-07T22:31:45.634Z,2.90
2022-08-07T22:34:35.789Z,3.00
2022-08-07T22:37:13.874Z,3.70
2022-08-07T22:40:10.626Z,2.90
2022-08-07T22:42:44.420Z,5.00
2022-08-07T22:46:04.056Z,3.40
2022-08-07T22:48:31.310Z,4.70
2022-08-07T22:51:15.258Z,3.60
2022-08-07T22:54:07.767Z,3.10
2022-08-07T22:56:49.142Z,2.60
2022-08-07T22:59:52.065Z,2.50
2022-08-07T23:02:46.831Z,2.50
2022-08-07T23:10:03.772Z,4.20
2022-08-07T23:12:51.684Z,7.00
2022-08-07T23:16:06.185Z,4.60
2022-08-07T23:19:11.098Z,3.70
2022-08-07T23:21:59.556Z,2.00
2022-08-07T23:25:09.041Z,2.70
2022-08-07T23:28:22.804Z,3.60
2022-08-07T23:31:13.884Z,3.40
2022-08-07T23:34:36.300Z,2.80
2022-08-07T23:37:25.421Z,2.40
2022-08-07T23:40:43.050Z,2.10
2022-08-07T23:43:51.246Z,2.30
2022-08-07T23:46:39.726Z,2.30
2022-08-07T23:49:59.083Z,2.20
2022-08-07T23:53:16.847Z,1.90
2022-08-07T23:56:12.645Z,2.10
2022-08-07T23:59:10.155Z,1.90
